WetterOnline ( https://www.wetteronline.ch )

Wetter aktuell Thüringer Wald (Südteil)

Aktuelles Wetter: Schmücke (948m)

6-stündlich | Neueste Meldungen
Ortszeit Temperatur Wetter
Mi, 22.01. 1:00 0.4° C wolkenlos
Di, 21.01. 19:00 -1.1° C leicht bewölkt
Di, 21.01. 13:00 3.6° C leicht bewölkt
Di, 21.01. 7:00 -3.9° C wolkenlos
Di, 21.01. 1:00 -3.8° C wolkenlos
Mo, 20.01. 19:00 -4.1° C fast wolkenlos
Mo, 20.01. 13:00 -1.8° C bewölkt
Mo, 20.01. 7:00 -2.8° C bedeckt
Ortszeit Temperatur Wetter
Mi, 22.01. 3:30 0.9° C leicht bewölkt
Mi, 22.01. 3:20 0.9° C leicht bewölkt
Mi, 22.01. 3:10 0.9° C wolkig
Mi, 22.01. 3:00 1.8° C wolkig
Mi, 22.01. 2:50 1.8° C wolkig
Mi, 22.01. 2:40 1.0° C leicht bewölkt
Mi, 22.01. 2:30 1.4° C leicht bewölkt
Mi, 22.01. 2:00 0.2° C wolkig
Mi, 22.01. 1:30 0.1° C leicht bewölkt
Mi, 22.01. 1:00 0.4° C wolkenlos
Mi, 22.01. 0:30 -0.0° C leicht bewölkt
Ortszeit Relative Feuchte Sichtweite
Mi, 22.01. 1:00 29% >70 km
Di, 21.01. 19:00 44% >70 km
Di, 21.01. 13:00 56% 65 km
Di, 21.01. 7:00 87% >70 km
Di, 21.01. 1:00 87% 30 km
Mo, 20.01. 19:00 89% 22 km
Mo, 20.01. 13:00 86% 21 km
Mo, 20.01. 7:00 89% 12 km
Ortszeit Relative Feuchte Sichtweite
Mi, 22.01. 3:30 19% >70 km
Mi, 22.01. 3:20 19% -
Mi, 22.01. 3:10 25% -
Mi, 22.01. 3:00 19% 65 km
Mi, 22.01. 2:50 19% -
Mi, 22.01. 2:40 23% -
Mi, 22.01. 2:30 24% >70 km
Mi, 22.01. 2:00 28% >70 km
Mi, 22.01. 1:30 29% >70 km
Mi, 22.01. 1:00 29% >70 km
Mi, 22.01. 0:30 30% >70 km
Ortszeit Niederschlagsmenge Niederschlagsart
Mi, 22.01. 1:00 0.0 l/m2 in 6 Std. -
Di, 21.01. 19:00 0.0 l/m2 in 12 Std. -
Di, 21.01. 13:00 0.0 l/m2 in 6 Std. -
Di, 21.01. 7:00 0.0 l/m2 in 12 Std. -
Di, 21.01. 1:00 0.0 l/m2 in 6 Std. -
Mo, 20.01. 19:00 0.0 l/m2 in 12 Std. -
Mo, 20.01. 13:00 0.0 l/m2 in 6 Std. -
Mo, 20.01. 7:00 0.1 l/m2 in 12 Std. -
Ortszeit Niederschlagsmenge Niederschlagsart
Mi, 22.01. 3:30 0.0 l/m2 in 1 Std. -
Mi, 22.01. 3:20 keine Meldung -
Mi, 22.01. 3:10 keine Meldung -
Mi, 22.01. 3:00 0.0 l/m2 in 1 Std. -
Mi, 22.01. 2:50 keine Meldung -
Mi, 22.01. 2:40 keine Meldung -
Mi, 22.01. 2:30 0.0 l/m2 in 1 Std. -
Mi, 22.01. 2:00 0.0 l/m2 in 1 Std. -
Mi, 22.01. 1:30 0.0 l/m2 in 1 Std. -
Mi, 22.01. 1:00 0.0 l/m2 in 1 Std. -
Mi, 22.01. 0:30 0.0 l/m2 in 1 Std. -
Ortszeit Stärke Spitze Richtung
km/h Bft. km/h Grad Sektor
Mi, 22.01. 1:00 9 2 22 10° N
Di, 21.01. 19:00 13 3 17 350° N
Di, 21.01. 13:00 6 1 11 320° NW
Di, 21.01. 7:00 4 1 14 170° S
Di, 21.01. 1:00 9 2 20 230° SW
Mo, 20.01. 19:00 7 2 7 70° O
Mo, 20.01. 13:00 4 1 18 140° SO
Mo, 20.01. 7:00 6 1 22 30° NO
Ortszeit Stärke Spitze Richtung
km/h Bft. km/h Grad Sektor
Mi, 22.01. 3:30 13 3 19 320° NW
Mi, 22.01. 3:20 13 3 - 320° NW
Mi, 22.01. 3:10 11 2 - 320° NW
Mi, 22.01. 3:00 15 3 20 340° N
Mi, 22.01. 2:50 15 3 - 340° N
Mi, 22.01. 2:40 11 2 - 310° NW
Mi, 22.01. 2:30 14 3 18 320° NW
Mi, 22.01. 2:00 9 2 20 280° W
Mi, 22.01. 1:30 7 2 14 310° NW
Mi, 22.01. 1:00 9 2 15 10° N
Mi, 22.01. 0:30 7 2 11 250° W
Ortszeit Untergrenze Bedeckung Gattung
total tief tief mittel hoch
Mi, 22.01. 1:00 - 0/8 0/8 - - -
Di, 21.01. 19:00 8100 m 4/8 0/8 - - -
Di, 21.01. 13:00 10500 m 8/8 0/8 - - -
Di, 21.01. 7:00 - 0/8 0/8 - - -
Di, 21.01. 1:00 - 0/8 0/8 - - -
Mo, 20.01. 19:00 240 m 1/8 1/8 - - -
Mo, 20.01. 13:00 180 m 7/8 7/8 - - -
Mo, 20.01. 7:00 90 m 8/8 8/8 - - -
Ortszeit Bedeckungsgrad in Achtel und Wolkenuntergrenze
Mi, 22.01. 3:30 5(9000m)
Mi, 22.01. 3:20 5(9000m)
Mi, 22.01. 3:10 8(9000m)
Mi, 22.01. 3:00 7(9000m)
Mi, 22.01. 2:50 7(9000m)
Mi, 22.01. 2:40 6(9000m)
Mi, 22.01. 2:30 6(9000m)
Mi, 22.01. 2:00 8(9000m)
Mi, 22.01. 1:30 5(10500m)
Mi, 22.01. 1:00 keine Wolken
Mi, 22.01. 0:30 4(10500m)
Ortszeit Stationsdruck (hPa) Tendenz (hPa in 3 Std.)
Mi, 22.01. 1:00 924 - 1,2
Di, 21.01. 19:00 926 - 0,7
Di, 21.01. 13:00 928 - 0,6
Di, 21.01. 7:00 929 - 0,7
Di, 21.01. 1:00 931 - 0,8
Mo, 20.01. 19:00 932 - 0,3
Mo, 20.01. 13:00 933 + 0,6
Mo, 20.01. 7:00 931 + 0,8
Ortszeit Stationsdruck (hPa) Tendenz (hPa in 3 Std.)
Mi, 22.01. 3:30 923 - 1,5
Mi, 22.01. 3:20 923 keine Meldung
Mi, 22.01. 3:10 923 keine Meldung
Mi, 22.01. 3:00 923 - 1,5
Mi, 22.01. 2:50 923 keine Meldung
Mi, 22.01. 2:40 923 keine Meldung
Mi, 22.01. 2:30 923 - 1,3
Mi, 22.01. 2:00 923 - 1,5
Mi, 22.01. 1:30 924 - 1,5
Mi, 22.01. 1:00 924 - 1,2
Mi, 22.01. 0:30 924 - 1,2
Ortszeit Schneehöhe (cm)
Mi, 22.01. 1:00 0
Di, 21.01. 19:00 0
Di, 21.01. 13:00 0
Di, 21.01. 7:00 0
Di, 21.01. 1:00 0
Mo, 20.01. 19:00 0
Mo, 20.01. 13:00 0
Mo, 20.01. 7:00 0
Ortszeit Schneehöhe (cm)
Mi, 22.01. 3:30 0
Mi, 22.01. 3:20 0
Mi, 22.01. 3:10 0
Mi, 22.01. 3:00 0
Mi, 22.01. 2:50 0
Mi, 22.01. 2:40 0
Mi, 22.01. 2:30 0
Mi, 22.01. 2:00 0
Mi, 22.01. 1:30 0
Mi, 22.01. 1:00 0
Mi, 22.01. 0:30 0
Link zu dieser Seite / Seite empfehlen

Das Wetter in ...